sensor_id;sensor_type;location;lat;lon;timestamp;P1;durP1;ratioP1;P2;durP2;ratioP2
18899;SDS011;9582;52.018;6.306;2023-08-21T00:00:51;5.55;;;2.90;;
18899;SDS011;9582;52.018;6.306;2023-08-21T00:03:18;6.80;;;3.40;;
18899;SDS011;9582;52.018;6.306;2023-08-21T00:05:44;6.00;;;3.50;;
18899;SDS011;9582;52.018;6.306;2023-08-21T00:08:11;6.40;;;3.28;;
18899;SDS011;9582;52.018;6.306;2023-08-21T00:10:38;5.30;;;3.70;;
18899;SDS011;9582;52.018;6.306;2023-08-21T00:13:06;4.80;;;3.42;;
18899;SDS011;9582;52.018;6.306;2023-08-21T00:15:32;6.25;;;3.50;;
18899;SDS011;9582;52.018;6.306;2023-08-21T00:17:59;6.55;;;3.28;;
18899;SDS011;9582;52.018;6.306;2023-08-21T00:20:26;5.22;;;3.00;;
18899;SDS011;9582;52.018;6.306;2023-08-21T00:22:52;5.68;;;3.17;;
18899;SDS011;9582;52.018;6.306;2023-08-21T00:25:20;6.15;;;3.97;;
18899;SDS011;9582;52.018;6.306;2023-08-21T00:27:49;4.35;;;2.90;;
18899;SDS011;9582;52.018;6.306;2023-08-21T00:30:15;6.50;;;3.20;;
18899;SDS011;9582;52.018;6.306;2023-08-21T00:32:42;7.47;;;3.30;;
18899;SDS011;9582;52.018;6.306;2023-08-21T00:35:08;4.32;;;3.15;;
18899;SDS011;9582;52.018;6.306;2023-08-21T00:37:35;4.40;;;3.15;;
18899;SDS011;9582;52.018;6.306;2023-08-21T00:40:01;6.65;;;3.45;;
18899;SDS011;9582;52.018;6.306;2023-08-21T00:42:28;6.75;;;3.30;;
18899;SDS011;9582;52.018;6.306;2023-08-21T00:44:56;4.85;;;2.80;;
18899;SDS011;9582;52.018;6.306;2023-08-21T00:47:22;4.80;;;2.83;;
18899;SDS011;9582;52.018;6.306;2023-08-21T00:49:49;7.07;;;3.42;;
18899;SDS011;9582;52.018;6.306;2023-08-21T00:52:15;5.55;;;3.38;;
18899;SDS011;9582;52.018;6.306;2023-08-21T00:54:44;6.20;;;3.60;;
18899;SDS011;9582;52.018;6.306;2023-08-21T00:57:11;3.90;;;2.92;;
18899;SDS011;9582;52.018;6.306;2023-08-21T00:59:39;9.50;;;3.40;;
18899;SDS011;9582;52.018;6.306;2023-08-21T01:02:07;7.00;;;3.53;;
18899;SDS011;9582;52.018;6.306;2023-08-21T01:04:34;6.35;;;3.40;;
18899;SDS011;9582;52.018;6.306;2023-08-21T01:07:00;6.25;;;3.30;;
18899;SDS011;9582;52.018;6.306;2023-08-21T01:09:29;5.25;;;3.50;;
18899;SDS011;9582;52.018;6.306;2023-08-21T01:12:03;7.13;;;3.90;;
18899;SDS011;9582;52.018;6.306;2023-08-21T01:14:47;5.30;;;3.42;;
18899;SDS011;9582;52.018;6.306;2023-08-21T01:17:21;7.35;;;3.67;;
18899;SDS011;9582;52.018;6.306;2023-08-21T01:19:49;4.40;;;3.30;;
18899;SDS011;9582;52.018;6.306;2023-08-21T01:22:17;7.15;;;3.40;;
18899;SDS011;9582;52.018;6.306;2023-08-21T01:24:45;6.85;;;3.20;;
18899;SDS011;9582;52.018;6.306;2023-08-21T01:27:12;6.03;;;3.90;;
18899;SDS011;9582;52.018;6.306;2023-08-21T01:29:40;5.15;;;3.60;;
18899;SDS011;9582;52.018;6.306;2023-08-21T01:32:07;5.15;;;3.42;;
18899;SDS011;9582;52.018;6.306;2023-08-21T01:34:47;5.35;;;3.50;;
18899;SDS011;9582;52.018;6.306;2023-08-21T01:37:17;6.40;;;3.95;;
18899;SDS011;9582;52.018;6.306;2023-08-21T01:39:43;5.75;;;3.50;;
18899;SDS011;9582;52.018;6.306;2023-08-21T01:42:11;5.75;;;3.90;;
18899;SDS011;9582;52.018;6.306;2023-08-21T01:44:38;4.10;;;3.25;;
18899;SDS011;9582;52.018;6.306;2023-08-21T01:47:05;5.75;;;4.05;;
18899;SDS011;9582;52.018;6.306;2023-08-21T01:49:32;7.15;;;3.85;;
18899;SDS011;9582;52.018;6.306;2023-08-21T01:51:59;6.05;;;3.67;;
18899;SDS011;9582;52.018;6.306;2023-08-21T01:54:25;5.15;;;3.30;;
18899;SDS011;9582;52.018;6.306;2023-08-21T01:56:53;4.85;;;3.88;;
18899;SDS011;9582;52.018;6.306;2023-08-21T01:59:20;5.65;;;4.13;;
18899;SDS011;9582;52.018;6.306;2023-08-21T02:01:46;4.95;;;4.10;;
18899;SDS011;9582;52.018;6.306;2023-08-21T02:04:13;5.57;;;3.80;;
18899;SDS011;9582;52.018;6.306;2023-08-21T02:06:40;6.13;;;3.78;;
18899;SDS011;9582;52.018;6.306;2023-08-21T02:09:06;7.53;;;3.63;;
18899;SDS011;9582;52.018;6.306;2023-08-21T02:11:34;5.05;;;3.55;;
18899;SDS011;9582;52.018;6.306;2023-08-21T02:14:01;6.22;;;3.60;;
18899;SDS011;9582;52.018;6.306;2023-08-21T02:16:29;5.10;;;3.30;;
18899;SDS011;9582;52.018;6.306;2023-08-21T02:18:56;4.43;;;3.25;;
18899;SDS011;9582;52.018;6.306;2023-08-21T02:21:23;7.13;;;3.65;;
18899;SDS011;9582;52.018;6.306;2023-08-21T02:23:49;6.60;;;3.70;;
18899;SDS011;9582;52.018;6.306;2023-08-21T02:26:16;8.02;;;3.90;;
18899;SDS011;9582;52.018;6.306;2023-08-21T02:28:44;6.45;;;3.95;;
18899;SDS011;9582;52.018;6.306;2023-08-21T02:31:13;5.32;;;3.22;;
18899;SDS011;9582;52.018;6.306;2023-08-21T02:33:39;4.72;;;3.42;;
18899;SDS011;9582;52.018;6.306;2023-08-21T02:36:06;3.22;;;2.92;;
18899;SDS011;9582;52.018;6.306;2023-08-21T02:38:33;3.92;;;3.50;;
18899;SDS011;9582;52.018;6.306;2023-08-21T02:40:59;8.27;;;3.65;;
18899;SDS011;9582;52.018;6.306;2023-08-21T02:43:26;5.60;;;3.50;;
18899;SDS011;9582;52.018;6.306;2023-08-21T02:45:53;5.13;;;3.38;;
18899;SDS011;9582;52.018;6.306;2023-08-21T02:48:21;5.43;;;3.30;;
18899;SDS011;9582;52.018;6.306;2023-08-21T02:50:48;6.85;;;4.50;;
18899;SDS011;9582;52.018;6.306;2023-08-21T02:53:14;7.40;;;4.05;;
18899;SDS011;9582;52.018;6.306;2023-08-21T02:55:41;6.03;;;4.10;;
18899;SDS011;9582;52.018;6.306;2023-08-21T02:58:08;5.03;;;4.03;;
18899;SDS011;9582;52.018;6.306;2023-08-21T03:00:37;3.92;;;3.17;;
18899;SDS011;9582;52.018;6.306;2023-08-21T03:03:04;10.65;;;4.20;;
18899;SDS011;9582;52.018;6.306;2023-08-21T03:05:32;6.43;;;4.05;;
18899;SDS011;9582;52.018;6.306;2023-08-21T03:07:59;5.00;;;3.92;;
18899;SDS011;9582;52.018;6.306;2023-08-21T03:10:25;6.32;;;3.85;;
18899;SDS011;9582;52.018;6.306;2023-08-21T03:12:54;4.93;;;3.30;;
18899;SDS011;9582;52.018;6.306;2023-08-21T03:15:20;5.55;;;3.80;;
18899;SDS011;9582;52.018;6.306;2023-08-21T03:17:47;6.60;;;3.70;;
18899;SDS011;9582;52.018;6.306;2023-08-21T03:20:14;7.28;;;4.38;;
18899;SDS011;9582;52.018;6.306;2023-08-21T03:22:44;4.57;;;4.13;;
18899;SDS011;9582;52.018;6.306;2023-08-21T03:25:10;8.13;;;4.30;;
18899;SDS011;9582;52.018;6.306;2023-08-21T03:27:37;6.22;;;3.65;;
18899;SDS011;9582;52.018;6.306;2023-08-21T03:30:05;6.15;;;3.80;;
18899;SDS011;9582;52.018;6.306;2023-08-21T03:32:32;6.82;;;3.90;;
18899;SDS011;9582;52.018;6.306;2023-08-21T03:34:59;6.00;;;4.22;;
18899;SDS011;9582;52.018;6.306;2023-08-21T03:37:25;5.25;;;3.42;;
18899;SDS011;9582;52.018;6.306;2023-08-21T03:39:53;4.85;;;3.83;;
18899;SDS011;9582;52.018;6.306;2023-08-21T03:42:20;4.15;;;3.60;;
18899;SDS011;9582;52.018;6.306;2023-08-21T03:44:47;6.18;;;3.80;;
18899;SDS011;9582;52.018;6.306;2023-08-21T03:47:15;6.25;;;3.58;;
18899;SDS011;9582;52.018;6.306;2023-08-21T03:49:56;7.70;;;3.90;;
18899;SDS011;9582;52.018;6.306;2023-08-21T03:52:24;3.95;;;3.58;;
18899;SDS011;9582;52.018;6.306;2023-08-21T03:54:50;6.65;;;3.85;;
18899;SDS011;9582;52.018;6.306;2023-08-21T03:57:18;3.90;;;3.55;;
18899;SDS011;9582;52.018;6.306;2023-08-21T03:59:45;5.95;;;3.72;;
18899;SDS011;9582;52.018;6.306;2023-08-21T04:02:12;7.18;;;3.72;;
18899;SDS011;9582;52.018;6.306;2023-08-21T04:04:39;5.78;;;3.90;;
18899;SDS011;9582;52.018;6.306;2023-08-21T04:07:05;5.35;;;4.18;;
18899;SDS011;9582;52.018;6.306;2023-08-21T04:09:32;5.05;;;4.35;;
18899;SDS011;9582;52.018;6.306;2023-08-21T04:11:58;6.75;;;4.47;;
18899;SDS011;9582;52.018;6.306;2023-08-21T04:14:26;6.47;;;4.43;;
18899;SDS011;9582;52.018;6.306;2023-08-21T04:16:53;7.75;;;4.78;;
18899;SDS011;9582;52.018;6.306;2023-08-21T04:19:19;8.60;;;4.45;;
18899;SDS011;9582;52.018;6.306;2023-08-21T04:21:46;6.78;;;4.70;;
18899;SDS011;9582;52.018;6.306;2023-08-21T04:24:12;12.30;;;5.30;;
18899;SDS011;9582;52.018;6.306;2023-08-21T04:26:39;9.00;;;5.00;;
18899;SDS011;9582;52.018;6.306;2023-08-21T04:29:06;7.90;;;4.85;;
18899;SDS011;9582;52.018;6.306;2023-08-21T04:31:33;6.45;;;4.43;;
18899;SDS011;9582;52.018;6.306;2023-08-21T04:34:00;7.53;;;4.28;;
18899;SDS011;9582;52.018;6.306;2023-08-21T04:36:27;5.75;;;4.47;;
18899;SDS011;9582;52.018;6.306;2023-08-21T04:38:55;4.95;;;4.38;;
18899;SDS011;9582;52.018;6.306;2023-08-21T04:41:22;8.32;;;4.18;;
18899;SDS011;9582;52.018;6.306;2023-08-21T04:43:48;7.05;;;4.50;;
18899;SDS011;9582;52.018;6.306;2023-08-21T04:46:16;6.80;;;4.47;;
18899;SDS011;9582;52.018;6.306;2023-08-21T04:48:45;8.73;;;4.78;;
18899;SDS011;9582;52.018;6.306;2023-08-21T04:51:12;7.38;;;4.65;;
18899;SDS011;9582;52.018;6.306;2023-08-21T04:53:40;6.28;;;4.25;;
18899;SDS011;9582;52.018;6.306;2023-08-21T04:56:11;5.18;;;4.20;;
18899;SDS011;9582;52.018;6.306;2023-08-21T04:58:37;5.40;;;3.50;;
18899;SDS011;9582;52.018;6.306;2023-08-21T05:01:06;7.15;;;4.18;;
18899;SDS011;9582;52.018;6.306;2023-08-21T05:03:35;7.45;;;4.25;;
18899;SDS011;9582;52.018;6.306;2023-08-21T05:06:04;6.68;;;4.25;;
18899;SDS011;9582;52.018;6.306;2023-08-21T05:08:33;4.97;;;4.13;;
18899;SDS011;9582;52.018;6.306;2023-08-21T05:11:01;7.07;;;4.22;;
18899;SDS011;9582;52.018;6.306;2023-08-21T05:13:31;7.15;;;4.50;;
18899;SDS011;9582;52.018;6.306;2023-08-21T05:15:58;9.80;;;4.95;;
18899;SDS011;9582;52.018;6.306;2023-08-21T05:18:29;6.65;;;4.68;;
18899;SDS011;9582;52.018;6.306;2023-08-21T05:20:56;5.85;;;4.50;;
18899;SDS011;9582;52.018;6.306;2023-08-21T05:23:24;10.60;;;4.97;;
18899;SDS011;9582;52.018;6.306;2023-08-21T05:25:54;9.27;;;4.15;;
18899;SDS011;9582;52.018;6.306;2023-08-21T05:28:20;6.13;;;4.22;;
18899;SDS011;9582;52.018;6.306;2023-08-21T05:30:47;7.10;;;4.60;;
18899;SDS011;9582;52.018;6.306;2023-08-21T05:33:15;6.15;;;4.78;;
18899;SDS011;9582;52.018;6.306;2023-08-21T05:35:43;7.78;;;4.68;;
18899;SDS011;9582;52.018;6.306;2023-08-21T05:38:09;10.77;;;5.47;;
18899;SDS011;9582;52.018;6.306;2023-08-21T05:40:37;6.53;;;5.00;;
18899;SDS011;9582;52.018;6.306;2023-08-21T05:43:03;6.80;;;4.70;;
18899;SDS011;9582;52.018;6.306;2023-08-21T05:45:30;7.93;;;4.75;;
18899;SDS011;9582;52.018;6.306;2023-08-21T05:47:57;7.60;;;4.78;;
18899;SDS011;9582;52.018;6.306;2023-08-21T05:50:24;7.22;;;4.53;;
18899;SDS011;9582;52.018;6.306;2023-08-21T05:52:50;4.90;;;3.75;;
18899;SDS011;9582;52.018;6.306;2023-08-21T05:55:22;8.68;;;3.92;;
18899;SDS011;9582;52.018;6.306;2023-08-21T05:57:51;5.45;;;4.00;;
18899;SDS011;9582;52.018;6.306;2023-08-21T06:00:18;5.80;;;3.65;;
18899;SDS011;9582;52.018;6.306;2023-08-21T06:02:45;4.65;;;3.67;;
18899;SDS011;9582;52.018;6.306;2023-08-21T06:05:31;6.10;;;3.47;;
18899;SDS011;9582;52.018;6.306;2023-08-21T06:07:58;7.65;;;3.22;;
18899;SDS011;9582;52.018;6.306;2023-08-21T06:10:24;5.78;;;3.40;;
18899;SDS011;9582;52.018;6.306;2023-08-21T06:12:52;6.72;;;3.63;;
18899;SDS011;9582;52.018;6.306;2023-08-21T06:15:19;6.97;;;3.95;;
18899;SDS011;9582;52.018;6.306;2023-08-21T06:17:46;7.47;;;3.25;;
18899;SDS011;9582;52.018;6.306;2023-08-21T06:20:12;6.30;;;3.25;;
18899;SDS011;9582;52.018;6.306;2023-08-21T06:22:39;7.22;;;3.10;;
18899;SDS011;9582;52.018;6.306;2023-08-21T06:25:06;8.57;;;3.30;;
18899;SDS011;9582;52.018;6.306;2023-08-21T06:27:33;5.82;;;2.80;;
18899;SDS011;9582;52.018;6.306;2023-08-21T06:30:02;6.57;;;2.95;;
18899;SDS011;9582;52.018;6.306;2023-08-21T06:32:29;5.90;;;2.63;;
18899;SDS011;9582;52.018;6.306;2023-08-21T06:34:56;5.38;;;2.67;;
18899;SDS011;9582;52.018;6.306;2023-08-21T06:37:23;5.00;;;2.03;;
18899;SDS011;9582;52.018;6.306;2023-08-21T06:39:50;6.95;;;2.50;;
18899;SDS011;9582;52.018;6.306;2023-08-21T06:42:16;7.80;;;2.90;;
18899;SDS011;9582;52.018;6.306;2023-08-21T06:44:47;7.68;;;2.70;;
18899;SDS011;9582;52.018;6.306;2023-08-21T06:47:15;5.38;;;2.33;;
18899;SDS011;9582;52.018;6.306;2023-08-21T06:49:42;5.60;;;2.53;;
18899;SDS011;9582;52.018;6.306;2023-08-21T06:52:09;4.50;;;2.35;;
18899;SDS011;9582;52.018;6.306;2023-08-21T06:54:35;6.32;;;2.70;;
18899;SDS011;9582;52.018;6.306;2023-08-21T06:57:01;6.45;;;2.63;;
18899;SDS011;9582;52.018;6.306;2023-08-21T06:59:28;5.45;;;2.90;;
18899;SDS011;9582;52.018;6.306;2023-08-21T07:01:54;7.47;;;2.10;;
18899;SDS011;9582;52.018;6.306;2023-08-21T07:04:22;5.57;;;2.25;;
18899;SDS011;9582;52.018;6.306;2023-08-21T07:06:49;4.90;;;1.88;;
18899;SDS011;9582;52.018;6.306;2023-08-21T07:09:15;7.20;;;2.42;;
18899;SDS011;9582;52.018;6.306;2023-08-21T07:11:42;7.57;;;2.47;;
18899;SDS011;9582;52.018;6.306;2023-08-21T07:14:08;3.47;;;2.10;;
18899;SDS011;9582;52.018;6.306;2023-08-21T07:16:35;5.82;;;1.95;;
18899;SDS011;9582;52.018;6.306;2023-08-21T07:19:01;4.20;;;2.30;;
18899;SDS011;9582;52.018;6.306;2023-08-21T07:21:29;4.97;;;2.28;;
18899;SDS011;9582;52.018;6.306;2023-08-21T07:23:56;6.63;;;2.17;;
18899;SDS011;9582;52.018;6.306;2023-08-21T07:26:22;7.18;;;2.35;;
18899;SDS011;9582;52.018;6.306;2023-08-21T07:28:49;4.25;;;2.03;;
18899;SDS011;9582;52.018;6.306;2023-08-21T07:31:15;5.28;;;2.28;;
18899;SDS011;9582;52.018;6.306;2023-08-21T07:33:42;5.88;;;2.50;;
18899;SDS011;9582;52.018;6.306;2023-08-21T07:36:08;6.07;;;2.00;;
18899;SDS011;9582;52.018;6.306;2023-08-21T07:38:41;4.40;;;1.88;;
18899;SDS011;9582;52.018;6.306;2023-08-21T07:41:08;5.63;;;2.40;;
18899;SDS011;9582;52.018;6.306;2023-08-21T07:43:36;7.95;;;2.10;;
18899;SDS011;9582;52.018;6.306;2023-08-21T07:46:03;5.10;;;1.83;;
18899;SDS011;9582;52.018;6.306;2023-08-21T07:48:30;7.13;;;2.28;;
18899;SDS011;9582;52.018;6.306;2023-08-21T07:50:56;3.03;;;1.50;;
18899;SDS011;9582;52.018;6.306;2023-08-21T07:53:23;5.07;;;1.92;;
18899;SDS011;9582;52.018;6.306;2023-08-21T07:55:51;7.43;;;1.95;;
18899;SDS011;9582;52.018;6.306;2023-08-21T07:58:18;6.65;;;2.42;;
18899;SDS011;9582;52.018;6.306;2023-08-21T08:00:45;8.35;;;2.17;;
18899;SDS011;9582;52.018;6.306;2023-08-21T08:03:13;5.55;;;2.10;;
18899;SDS011;9582;52.018;6.306;2023-08-21T08:05:39;5.82;;;2.03;;
18899;SDS011;9582;52.018;6.306;2023-08-21T08:08:06;5.93;;;1.92;;
18899;SDS011;9582;52.018;6.306;2023-08-21T08:10:33;3.90;;;1.58;;
18899;SDS011;9582;52.018;6.306;2023-08-21T08:13:04;4.00;;;1.73;;
18899;SDS011;9582;52.018;6.306;2023-08-21T08:15:31;4.80;;;1.70;;
18899;SDS011;9582;52.018;6.306;2023-08-21T08:17:59;4.00;;;1.77;;
18899;SDS011;9582;52.018;6.306;2023-08-21T08:20:25;5.68;;;1.73;;
18899;SDS011;9582;52.018;6.306;2023-08-21T08:22:52;6.93;;;2.15;;
18899;SDS011;9582;52.018;6.306;2023-08-21T08:25:18;4.00;;;1.67;;
18899;SDS011;9582;52.018;6.306;2023-08-21T08:27:45;4.45;;;1.80;;
18899;SDS011;9582;52.018;6.306;2023-08-21T08:30:13;3.45;;;1.60;;
18899;SDS011;9582;52.018;6.306;2023-08-21T08:32:42;4.97;;;2.08;;
18899;SDS011;9582;52.018;6.306;2023-08-21T08:35:10;4.32;;;1.70;;
18899;SDS011;9582;52.018;6.306;2023-08-21T08:37:36;4.15;;;1.75;;
18899;SDS011;9582;52.018;6.306;2023-08-21T08:40:03;4.15;;;1.73;;
18899;SDS011;9582;52.018;6.306;2023-08-21T08:42:30;4.55;;;1.67;;
18899;SDS011;9582;52.018;6.306;2023-08-21T08:44:57;3.90;;;1.70;;
18899;SDS011;9582;52.018;6.306;2023-08-21T08:47:29;5.13;;;1.90;;
18899;SDS011;9582;52.018;6.306;2023-08-21T08:49:57;5.53;;;1.90;;
18899;SDS011;9582;52.018;6.306;2023-08-21T08:52:25;7.18;;;2.22;;
18899;SDS011;9582;52.018;6.306;2023-08-21T08:54:53;5.78;;;1.70;;
18899;SDS011;9582;52.018;6.306;2023-08-21T08:57:21;4.45;;;1.70;;
18899;SDS011;9582;52.018;6.306;2023-08-21T08:59:48;3.55;;;1.45;;
18899;SDS011;9582;52.018;6.306;2023-08-21T09:02:14;4.93;;;1.40;;
18899;SDS011;9582;52.018;6.306;2023-08-21T09:04:43;7.55;;;2.15;;
18899;SDS011;9582;52.018;6.306;2023-08-21T09:07:10;4.90;;;1.70;;
18899;SDS011;9582;52.018;6.306;2023-08-21T09:09:37;3.17;;;1.55;;
18899;SDS011;9582;52.018;6.306;2023-08-21T09:12:08;4.63;;;1.80;;
18899;SDS011;9582;52.018;6.306;2023-08-21T09:14:36;4.30;;;1.80;;
18899;SDS011;9582;52.018;6.306;2023-08-21T09:17:03;3.13;;;1.80;;
18899;SDS011;9582;52.018;6.306;2023-08-21T09:19:30;5.68;;;2.00;;
18899;SDS011;9582;52.018;6.306;2023-08-21T09:21:58;3.00;;;1.50;;
18899;SDS011;9582;52.018;6.306;2023-08-21T09:24:25;4.72;;;1.70;;
18899;SDS011;9582;52.018;6.306;2023-08-21T09:26:52;7.65;;;2.00;;
18899;SDS011;9582;52.018;6.306;2023-08-21T09:29:18;6.72;;;1.52;;
18899;SDS011;9582;52.018;6.306;2023-08-21T09:31:45;4.82;;;1.60;;
18899;SDS011;9582;52.018;6.306;2023-08-21T09:34:12;6.07;;;1.60;;
18899;SDS011;9582;52.018;6.306;2023-08-21T09:36:38;4.97;;;2.10;;
18899;SDS011;9582;52.018;6.306;2023-08-21T09:39:06;10.48;;;2.08;;
18899;SDS011;9582;52.018;6.306;2023-08-21T09:41:42;5.70;;;1.80;;
18899;SDS011;9582;52.018;6.306;2023-08-21T09:44:20;6.35;;;1.92;;
18899;SDS011;9582;52.018;6.306;2023-08-21T09:46:49;4.55;;;1.55;;
18899;SDS011;9582;52.018;6.306;2023-08-21T09:49:16;4.88;;;2.03;;
18899;SDS011;9582;52.018;6.306;2023-08-21T09:51:43;4.13;;;1.60;;
18899;SDS011;9582;52.018;6.306;2023-08-21T09:54:11;3.78;;;1.52;;
18899;SDS011;9582;52.018;6.306;2023-08-21T09:56:38;4.18;;;1.60;;
18899;SDS011;9582;52.018;6.306;2023-08-21T09:59:06;6.38;;;1.83;;
18899;SDS011;9582;52.018;6.306;2023-08-21T10:01:33;5.03;;;1.80;;
18899;SDS011;9582;52.018;6.306;2023-08-21T10:04:03;5.40;;;1.77;;
18899;SDS011;9582;52.018;6.306;2023-08-21T10:06:32;6.95;;;1.70;;
18899;SDS011;9582;52.018;6.306;2023-08-21T10:08:59;4.82;;;1.40;;
18899;SDS011;9582;52.018;6.306;2023-08-21T10:11:27;3.65;;;1.50;;
18899;SDS011;9582;52.018;6.306;2023-08-21T10:13:54;4.60;;;1.50;;
18899;SDS011;9582;52.018;6.306;2023-08-21T10:16:22;4.15;;;1.52;;
18899;SDS011;9582;52.018;6.306;2023-08-21T10:18:49;4.45;;;1.95;;
18899;SDS011;9582;52.018;6.306;2023-08-21T10:21:16;4.95;;;1.63;;
18899;SDS011;9582;52.018;6.306;2023-08-21T10:23:45;5.05;;;1.50;;
18899;SDS011;9582;52.018;6.306;2023-08-21T10:26:13;3.90;;;1.40;;
18899;SDS011;9582;52.018;6.306;2023-08-21T10:28:42;3.92;;;1.30;;
18899;SDS011;9582;52.018;6.306;2023-08-21T10:31:25;5.50;;;1.58;;
18899;SDS011;9582;52.018;6.306;2023-08-21T10:33:52;4.47;;;1.42;;
18899;SDS011;9582;52.018;6.306;2023-08-21T10:39:04;6.45;;;1.60;;
18899;SDS011;9582;52.018;6.306;2023-08-21T10:41:38;5.85;;;1.85;;
18899;SDS011;9582;52.018;6.306;2023-08-21T10:44:06;5.75;;;1.50;;
18899;SDS011;9582;52.018;6.306;2023-08-21T10:49:17;3.88;;;1.50;;
18899;SDS011;9582;52.018;6.306;2023-08-21T10:51:44;4.63;;;1.50;;
18899;SDS011;9582;52.018;6.306;2023-08-21T10:54:11;8.30;;;1.98;;
18899;SDS011;9582;52.018;6.306;2023-08-21T10:56:37;3.30;;;1.58;;
18899;SDS011;9582;52.018;6.306;2023-08-21T10:59:04;5.03;;;1.60;;
18899;SDS011;9582;52.018;6.306;2023-08-21T11:01:42;3.10;;;1.45;;
18899;SDS011;9582;52.018;6.306;2023-08-21T11:04:10;5.95;;;1.50;;
18899;SDS011;9582;52.018;6.306;2023-08-21T11:06:37;4.28;;;1.50;;
18899;SDS011;9582;52.018;6.306;2023-08-21T11:09:04;8.50;;;1.92;;
18899;SDS011;9582;52.018;6.306;2023-08-21T11:11:31;6.72;;;1.50;;
18899;SDS011;9582;52.018;6.306;2023-08-21T11:13:58;4.72;;;1.50;;
18899;SDS011;9582;52.018;6.306;2023-08-21T11:16:24;4.25;;;1.40;;
18899;SDS011;9582;52.018;6.306;2023-08-21T11:18:52;3.75;;;1.40;;
18899;SDS011;9582;52.018;6.306;2023-08-21T11:21:18;3.58;;;1.52;;
18899;SDS011;9582;52.018;6.306;2023-08-21T11:23:45;5.18;;;1.40;;
18899;SDS011;9582;52.018;6.306;2023-08-21T11:26:11;5.75;;;1.60;;
18899;SDS011;9582;52.018;6.306;2023-08-21T11:28:38;5.05;;;1.58;;
18899;SDS011;9582;52.018;6.306;2023-08-21T11:31:05;4.25;;;1.50;;
18899;SDS011;9582;52.018;6.306;2023-08-21T11:33:32;3.90;;;1.30;;
18899;SDS011;9582;52.018;6.306;2023-08-21T11:36:00;3.75;;;1.42;;
18899;SDS011;9582;52.018;6.306;2023-08-21T11:38:27;5.43;;;1.67;;
18899;SDS011;9582;52.018;6.306;2023-08-21T11:40:54;4.35;;;1.50;;
18899;SDS011;9582;52.018;6.306;2023-08-21T11:43:23;3.90;;;1.50;;
18899;SDS011;9582;52.018;6.306;2023-08-21T11:46:00;4.72;;;1.50;;
18899;SDS011;9582;52.018;6.306;2023-08-21T11:48:27;4.88;;;1.58;;
18899;SDS011;9582;52.018;6.306;2023-08-21T11:50:54;4.05;;;1.30;;
18899;SDS011;9582;52.018;6.306;2023-08-21T11:53:35;6.60;;;1.70;;
18899;SDS011;9582;52.018;6.306;2023-08-21T11:56:08;6.38;;;1.65;;
18899;SDS011;9582;52.018;6.306;2023-08-21T11:58:37;4.28;;;1.58;;
18899;SDS011;9582;52.018;6.306;2023-08-21T12:01:04;3.75;;;1.58;;
18899;SDS011;9582;52.018;6.306;2023-08-21T12:03:35;4.43;;;1.50;;
18899;SDS011;9582;52.018;6.306;2023-08-21T12:06:04;2.78;;;1.50;;
18899;SDS011;9582;52.018;6.306;2023-08-21T12:08:31;5.55;;;1.95;;
18899;SDS011;9582;52.018;6.306;2023-08-21T12:10:59;5.57;;;1.88;;
18899;SDS011;9582;52.018;6.306;2023-08-21T12:13:26;3.95;;;1.50;;
18899;SDS011;9582;52.018;6.306;2023-08-21T12:15:53;4.78;;;1.60;;
18899;SDS011;9582;52.018;6.306;2023-08-21T12:18:19;5.45;;;1.85;;
18899;SDS011;9582;52.018;6.306;2023-08-21T12:20:46;3.45;;;1.58;;
18899;SDS011;9582;52.018;6.306;2023-08-21T12:23:12;7.10;;;2.13;;
18899;SDS011;9582;52.018;6.306;2023-08-21T12:25:39;5.72;;;2.00;;
18899;SDS011;9582;52.018;6.306;2023-08-21T12:28:07;5.80;;;1.90;;
18899;SDS011;9582;52.018;6.306;2023-08-21T12:30:33;4.32;;;1.90;;
18899;SDS011;9582;52.018;6.306;2023-08-21T12:33:00;4.40;;;1.80;;
18899;SDS011;9582;52.018;6.306;2023-08-21T12:35:26;5.20;;;2.00;;
18899;SDS011;9582;52.018;6.306;2023-08-21T12:37:56;5.45;;;2.05;;
18899;SDS011;9582;52.018;6.306;2023-08-21T12:40:24;4.80;;;1.83;;
18899;SDS011;9582;52.018;6.306;2023-08-21T12:42:51;4.80;;;1.98;;
18899;SDS011;9582;52.018;6.306;2023-08-21T12:45:19;7.38;;;2.20;;
18899;SDS011;9582;52.018;6.306;2023-08-21T12:47:45;5.97;;;2.55;;
18899;SDS011;9582;52.018;6.306;2023-08-21T12:50:11;4.68;;;2.47;;
18899;SDS011;9582;52.018;6.306;2023-08-21T12:52:38;4.50;;;2.08;;
18899;SDS011;9582;52.018;6.306;2023-08-21T12:55:06;3.58;;;2.10;;
18899;SDS011;9582;52.018;6.306;2023-08-21T12:57:33;4.95;;;1.92;;
18899;SDS011;9582;52.018;6.306;2023-08-21T12:59:59;4.80;;;2.30;;
18899;SDS011;9582;52.018;6.306;2023-08-21T13:02:27;3.65;;;2.75;;
18899;SDS011;9582;52.018;6.306;2023-08-21T13:04:54;5.90;;;2.20;;
18899;SDS011;9582;52.018;6.306;2023-08-21T13:07:20;4.85;;;1.95;;
18899;SDS011;9582;52.018;6.306;2023-08-21T13:09:46;4.88;;;1.90;;
18899;SDS011;9582;52.018;6.306;2023-08-21T13:12:13;5.28;;;1.88;;
18899;SDS011;9582;52.018;6.306;2023-08-21T13:14:39;4.68;;;2.28;;
18899;SDS011;9582;52.018;6.306;2023-08-21T13:17:06;4.72;;;2.10;;
18899;SDS011;9582;52.018;6.306;2023-08-21T13:19:34;4.18;;;2.15;;
18899;SDS011;9582;52.018;6.306;2023-08-21T13:22:01;5.93;;;1.90;;
18899;SDS011;9582;52.018;6.306;2023-08-21T13:24:27;4.47;;;2.00;;
18899;SDS011;9582;52.018;6.306;2023-08-21T13:26:55;4.55;;;1.95;;
18899;SDS011;9582;52.018;6.306;2023-08-21T13:29:22;3.63;;;1.73;;
18899;SDS011;9582;52.018;6.306;2023-08-21T13:31:48;7.93;;;2.30;;
18899;SDS011;9582;52.018;6.306;2023-08-21T13:34:15;6.32;;;1.95;;
18899;SDS011;9582;52.018;6.306;2023-08-21T13:36:42;3.10;;;1.90;;
18899;SDS011;9582;52.018;6.306;2023-08-21T13:39:09;4.35;;;1.70;;
18899;SDS011;9582;52.018;6.306;2023-08-21T13:41:38;3.63;;;2.10;;
18899;SDS011;9582;52.018;6.306;2023-08-21T13:44:04;3.63;;;1.73;;
18899;SDS011;9582;52.018;6.306;2023-08-21T13:46:32;4.32;;;1.90;;
18899;SDS011;9582;52.018;6.306;2023-08-21T13:48:58;5.32;;;2.00;;
18899;SDS011;9582;52.018;6.306;2023-08-21T13:51:25;6.38;;;2.35;;
18899;SDS011;9582;52.018;6.306;2023-08-21T13:53:53;3.60;;;1.83;;
18899;SDS011;9582;52.018;6.306;2023-08-21T13:56:19;2.83;;;1.92;;
18899;SDS011;9582;52.018;6.306;2023-08-21T13:58:46;6.18;;;2.20;;
18899;SDS011;9582;52.018;6.306;2023-08-21T14:01:12;3.85;;;1.92;;
18899;SDS011;9582;52.018;6.306;2023-08-21T14:03:39;5.07;;;1.92;;
18899;SDS011;9582;52.018;6.306;2023-08-21T14:06:06;4.05;;;1.83;;
18899;SDS011;9582;52.018;6.306;2023-08-21T14:08:35;3.75;;;1.80;;
18899;SDS011;9582;52.018;6.306;2023-08-21T14:11:03;3.30;;;1.80;;
18899;SDS011;9582;52.018;6.306;2023-08-21T14:13:30;12.18;;;1.90;;
18899;SDS011;9582;52.018;6.306;2023-08-21T14:15:56;6.72;;;2.42;;
18899;SDS011;9582;52.018;6.306;2023-08-21T14:18:23;5.28;;;2.00;;
18899;SDS011;9582;52.018;6.306;2023-08-21T14:20:49;4.20;;;2.00;;
18899;SDS011;9582;52.018;6.306;2023-08-21T14:23:16;4.82;;;1.80;;
18899;SDS011;9582;52.018;6.306;2023-08-21T14:25:42;4.50;;;2.22;;
18899;SDS011;9582;52.018;6.306;2023-08-21T14:28:10;4.72;;;1.95;;
18899;SDS011;9582;52.018;6.306;2023-08-21T14:30:36;4.22;;;1.73;;
18899;SDS011;9582;52.018;6.306;2023-08-21T14:33:03;3.30;;;1.70;;
18899;SDS011;9582;52.018;6.306;2023-08-21T14:35:30;5.28;;;2.00;;
18899;SDS011;9582;52.018;6.306;2023-08-21T14:37:56;3.97;;;1.77;;
18899;SDS011;9582;52.018;6.306;2023-08-21T14:40:23;4.97;;;1.55;;
18899;SDS011;9582;52.018;6.306;2023-08-21T14:42:49;2.90;;;1.73;;
18899;SDS011;9582;52.018;6.306;2023-08-21T14:45:17;3.05;;;1.70;;
18899;SDS011;9582;52.018;6.306;2023-08-21T14:47:44;2.70;;;1.60;;
18899;SDS011;9582;52.018;6.306;2023-08-21T14:50:10;5.85;;;1.92;;
18899;SDS011;9582;52.018;6.306;2023-08-21T14:52:37;4.20;;;2.00;;
18899;SDS011;9582;52.018;6.306;2023-08-21T14:55:04;5.25;;;1.95;;
18899;SDS011;9582;52.018;6.306;2023-08-21T14:57:30;5.18;;;1.80;;
18899;SDS011;9582;52.018;6.306;2023-08-21T14:59:57;4.18;;;1.90;;
18899;SDS011;9582;52.018;6.306;2023-08-21T15:02:25;3.75;;;1.92;;
18899;SDS011;9582;52.018;6.306;2023-08-21T15:04:51;4.32;;;1.95;;
18899;SDS011;9582;52.018;6.306;2023-08-21T15:07:18;3.38;;;1.83;;